Oriska, North Dakota
Current Conditions -  °F | °C
As of 12:35 PM on Thursday 29 Jan 2015 (Local Time) from KBAC Reporting Station
Light Snow Light Snow  
Wind Chill:   Ceiling: Unl
Heat Index: 18°   Visibility: 5mi
Dew Point: 16°   Wind: 17mph
Humidity: 93%   Direction: 10°N
Pressure: 30.48"   Gusts: NA
Location:  46.93°N, 97.79°W
Report Text: KBAC 291835Z AUTO 01015KT 5SM -SN CLR M08/M09 A3048 RMK AO2
Loading
Personal Weather Stations






























Interactive Weather Map New forecast layout! Learn more

10-Day Weather Forecast

Advertisements
Track Severe Weather on mobile